sensor_id;sensor_type;location;lat;lon;timestamp;pressure;altitude;pressure_sealevel;temperature;humidity
63582;BME280;49727;51.078;17.066;2023-05-18T00:03:19;101010.22;;;8.35;61.76
63582;BME280;49727;51.078;17.066;2023-05-18T00:18:20;101007.19;;;8.19;62.53
63582;BME280;49727;51.078;17.066;2023-05-18T00:33:22;101031.28;;;7.96;62.99
63582;BME280;49727;51.078;17.066;2023-05-18T00:48:23;101049.97;;;7.85;63.50
63582;BME280;49727;51.078;17.066;2023-05-18T01:03:23;101061.66;;;7.82;64.17
63582;BME280;49727;51.078;17.066;2023-05-18T01:18:30;101070.72;;;7.79;64.00
63582;BME280;49727;51.078;17.066;2023-05-18T01:33:30;101087.41;;;7.70;64.19
63582;BME280;49727;51.078;17.066;2023-05-18T01:48:35;101092.19;;;7.55;65.00
63582;BME280;49727;51.078;17.066;2023-05-18T02:03:37;101107.28;;;7.43;64.73
63582;BME280;49727;51.078;17.066;2023-05-18T02:18:37;101103.22;;;7.39;65.31
63582;BME280;49727;51.078;17.066;2023-05-18T02:33:38;101113.81;;;7.39;65.38
63582;BME280;49727;51.078;17.066;2023-05-18T02:48:39;101121.69;;;7.41;65.82
63582;BME280;49727;51.078;17.066;2023-05-18T03:03:44;101137.81;;;7.38;65.56
63582;BME280;49727;51.078;17.066;2023-05-18T03:18:46;101133.09;;;7.41;65.03
63582;BME280;49727;51.078;17.066;2023-05-18T03:33:46;101141.53;;;7.47;65.03
63582;BME280;49727;51.078;17.066;2023-05-18T03:48:47;101153.03;;;7.57;64.94
63582;BME280;49727;51.078;17.066;2023-05-18T04:03:47;101160.66;;;7.83;64.63
63582;BME280;49727;51.078;17.066;2023-05-18T04:18:49;101177.03;;;8.09;64.21
63582;BME280;49727;51.078;17.066;2023-05-18T04:33:50;101190.81;;;8.24;63.38
63582;BME280;49727;51.078;17.066;2023-05-18T04:48:50;101190.88;;;8.55;63.05
63582;BME280;49727;51.078;17.066;2023-05-18T05:03:52;101193.50;;;8.86;62.32
63582;BME280;49727;51.078;17.066;2023-05-18T05:18:52;101209.69;;;9.13;61.52
63582;BME280;49727;51.078;17.066;2023-05-18T05:33:52;101209.34;;;9.67;60.64
63582;BME280;49727;51.078;17.066;2023-05-18T05:48:53;101210.84;;;10.28;59.73
63582;BME280;49727;51.078;17.066;2023-05-18T06:03:53;101212.66;;;10.95;57.81
63582;BME280;49727;51.078;17.066;2023-05-18T06:18:54;101214.78;;;11.37;56.64
63582;BME280;49727;51.078;17.066;2023-05-18T06:33:54;101229.00;;;11.74;54.14
63582;BME280;49727;51.078;17.066;2023-05-18T06:48:55;101233.06;;;12.14;52.14
63582;BME280;49727;51.078;17.066;2023-05-18T07:03:55;101236.22;;;12.62;50.81
63582;BME280;49727;51.078;17.066;2023-05-18T07:18:56;101240.06;;;13.36;49.05
63582;BME280;49727;51.078;17.066;2023-05-18T07:33:58;101243.31;;;14.47;47.33
63582;BME280;49727;51.078;17.066;2023-05-18T07:48:58;101241.91;;;15.64;44.27
63582;BME280;49727;51.078;17.066;2023-05-18T08:04:00;101244.22;;;17.11;41.37
63582;BME280;49727;51.078;17.066;2023-05-18T08:19:00;101229.75;;;19.05;38.11
63582;BME280;49727;51.078;17.066;2023-05-18T08:34:03;101223.97;;;20.04;34.48
63582;BME280;49727;51.078;17.066;2023-05-18T08:49:04;101222.38;;;21.02;32.64
63582;BME280;49727;51.078;17.066;2023-05-18T09:04:05;101212.69;;;20.81;31.90
63582;BME280;49727;51.078;17.066;2023-05-18T09:19:06;101220.50;;;21.54;31.27
63582;BME280;49727;51.078;17.066;2023-05-18T09:34:06;101215.38;;;21.96;30.91
63582;BME280;49727;51.078;17.066;2023-05-18T09:49:06;101215.09;;;22.74;29.33
63582;BME280;49727;51.078;17.066;2023-05-18T10:04:07;101207.16;;;22.72;28.97
63582;BME280;49727;51.078;17.066;2023-05-18T10:19:08;101197.06;;;23.10;27.69
63582;BME280;49727;51.078;17.066;2023-05-18T10:34:10;101204.44;;;23.40;27.22
63582;BME280;49727;51.078;17.066;2023-05-18T10:49:12;101185.69;;;23.62;26.02
63582;BME280;49727;51.078;17.066;2023-05-18T11:04:14;101179.91;;;23.70;26.00
63582;BME280;49727;51.078;17.066;2023-05-18T11:19:15;101178.56;;;24.15;25.12
63582;BME280;49727;51.078;17.066;2023-05-18T11:49:45;101182.38;;;24.90;24.47
63582;BME280;49727;51.078;17.066;2023-05-18T12:04:47;101174.88;;;24.45;24.41
63582;BME280;49727;51.078;17.066;2023-05-18T12:19:49;101162.72;;;24.12;23.95
63582;BME280;49727;51.078;17.066;2023-05-18T12:34:50;101155.94;;;23.25;24.17
63582;BME280;49727;51.078;17.066;2023-05-18T12:49:50;101153.19;;;23.13;23.85
63582;BME280;49727;51.078;17.066;2023-05-18T13:05:22;101129.97;;;23.41;24.17
63582;BME280;49727;51.078;17.066;2023-05-18T13:20:28;101137.66;;;22.83;24.44
63582;BME280;49727;51.078;17.066;2023-05-18T13:35:29;101127.06;;;22.63;24.62
63582;BME280;49727;51.078;17.066;2023-05-18T13:50:29;101113.22;;;22.27;25.36
63582;BME280;49727;51.078;17.066;2023-05-18T14:05:29;101095.81;;;21.73;26.54
63582;BME280;49727;51.078;17.066;2023-05-18T14:20:30;101091.34;;;21.60;27.44
63582;BME280;49727;51.078;17.066;2023-05-18T14:35:30;101082.63;;;21.51;27.85
63582;BME280;49727;51.078;17.066;2023-05-18T14:50:31;101082.81;;;20.92;28.13
63582;BME280;49727;51.078;17.066;2023-05-18T15:05:32;101090.88;;;19.88;29.43
63582;BME280;49727;51.078;17.066;2023-05-18T15:20:32;101082.94;;;19.67;30.08
63582;BME280;49727;51.078;17.066;2023-05-18T15:35:33;101084.22;;;19.51;30.81
63582;BME280;49727;51.078;17.066;2023-05-18T15:50:35;101076.53;;;19.34;30.74
63582;BME280;49727;51.078;17.066;2023-05-18T16:05:35;101078.56;;;19.19;31.49
63582;BME280;49727;51.078;17.066;2023-05-18T16:20:36;101074.69;;;18.24;32.82
63582;BME280;49727;51.078;17.066;2023-05-18T16:35:37;101078.03;;;17.91;34.19
63582;BME280;49727;51.078;17.066;2023-05-18T16:50:38;101084.28;;;17.70;34.97
63582;BME280;49727;51.078;17.066;2023-05-18T17:05:38;101084.00;;;17.37;35.69
63582;BME280;49727;51.078;17.066;2023-05-18T17:20:38;101091.97;;;17.02;36.76
63582;BME280;49727;51.078;17.066;2023-05-18T17:35:39;101100.38;;;16.47;38.10
63582;BME280;49727;51.078;17.066;2023-05-18T17:50:39;101105.56;;;16.04;39.82
63582;BME280;49727;51.078;17.066;2023-05-18T18:05:41;101096.09;;;15.55;41.15
63582;BME280;49727;51.078;17.066;2023-05-18T18:20:41;101110.06;;;15.04;42.15
63582;BME280;49727;51.078;17.066;2023-05-18T18:35:42;101110.78;;;14.50;42.98
63582;BME280;49727;51.078;17.066;2023-05-18T18:50:42;101136.56;;;13.95;44.23
63582;BME280;49727;51.078;17.066;2023-05-18T19:05:42;101151.28;;;13.49;45.78
63582;BME280;49727;51.078;17.066;2023-05-18T19:20:43;101153.50;;;13.03;47.52
63582;BME280;49727;51.078;17.066;2023-05-18T19:35:43;101164.09;;;12.70;48.67
63582;BME280;49727;51.078;17.066;2023-05-18T19:50:44;101169.25;;;12.37;49.74
63582;BME280;49727;51.078;17.066;2023-05-18T20:05:45;101186.72;;;12.05;50.92
63582;BME280;49727;51.078;17.066;2023-05-18T20:20:46;101206.19;;;11.79;51.97
63582;BME280;49727;51.078;17.066;2023-05-18T20:35:48;101197.44;;;11.51;53.16
63582;BME280;49727;51.078;17.066;2023-05-18T20:50:52;101206.69;;;11.29;54.50
63582;BME280;49727;51.078;17.066;2023-05-18T21:05:52;101213.22;;;11.16;55.41
63582;BME280;49727;51.078;17.066;2023-05-18T21:20:52;101201.78;;;11.06;56.53
63582;BME280;49727;51.078;17.066;2023-05-18T21:35:56;101213.63;;;10.94;57.86
63582;BME280;49727;51.078;17.066;2023-05-18T21:50:57;101223.19;;;10.87;58.31
63582;BME280;49727;51.078;17.066;2023-05-18T22:05:58;101215.47;;;10.83;58.49
63582;BME280;49727;51.078;17.066;2023-05-18T22:20:58;101224.47;;;10.82;59.35
63582;BME280;49727;51.078;17.066;2023-05-18T22:35:58;101229.25;;;10.79;60.06
63582;BME280;49727;51.078;17.066;2023-05-18T22:50:59;101222.97;;;10.70;60.60
63582;BME280;49727;51.078;17.066;2023-05-18T23:06:00;101216.53;;;10.63;60.80
63582;BME280;49727;51.078;17.066;2023-05-18T23:21:02;101209.16;;;10.47;61.56
63582;BME280;49727;51.078;17.066;2023-05-18T23:36:02;101194.47;;;10.23;62.30
63582;BME280;49727;51.078;17.066;2023-05-18T23:51:04;101195.34;;;10.04;62.70
